Terminal Aerodrome Forecast
Issued by NWS Duluth, MN

Home | Current Version | Previous Version | Text Only | Print | Product List | Glossary On
Versions: 1 2 3 4 5 6 7 8 9 10 11 12 13 14 15 16 17 18 19 20 21 22 23 24 25 26 27 28
000
FTUS43 KDLH 300141 AAA
TAFDLH
TAF AMD
KDLH 300141Z 3002/3024 27010KT P6SM VCSH SCT040 BKN060
      TEMPO 3002/3004 VRB20KT 4SM TSRA BKN030CB
     FM300500 33007KT P6SM FEW040
     FM301800 32010KT P6SM SKC=

USA.gov is the U.S. government's official web portal to all federal, state and local government web resources and services.